Time;durP1;ratioP1;P1;durP2;ratioP2;P2;SDS_P1;SDS_P2;PMS_P1;PMS_P2;Temp;Humidity;BMP_temperature;BMP_pressure;BME280_temperature;BME280_humidity;BME280_pressure;Samples;Min_cycle;Max_cycle;Signal;HPM_P1;HPM_P2
2023/05/12 00:00:16;;;;;;;0.10;0.10;;;;;;;;;;5095762;28;20205;-75
2023/05/12 00:02:43;;;;;;;0.10;0.10;;;;;;;;;;5120177;28;20264;-75
2023/05/12 00:05:10;;;;;;;0.10;0.10;;;;;;;;;;5094971;28;20257;-75
2023/05/12 00:07:36;;;;;;;0.10;0.10;;;;;;;;;;5120420;28;20273;-75
2023/05/12 00:10:04;;;;;;;0.10;0.10;;;;;;;;;;5104986;28;20270;-75
2023/05/12 00:12:30;;;;;;;0.10;0.10;;;;;;;;;;5109841;28;20246;-75
2023/05/12 00:14:57;;;;;;;0.10;0.10;;;;;;;;;;5105018;28;20535;-76
2023/05/12 00:17:23;;;;;;;0.00;0.00;;;;;;;;;;5110485;28;20234;-75
2023/05/12 00:19:49;;;;;;;0.10;0.10;;;;;;;;;;5105140;28;20315;-76
2023/05/12 00:22:16;;;;;;;0.00;0.00;;;;;;;;;;5110114;28;20265;-75
2023/05/12 00:24:42;;;;;;;0.00;0.00;;;;;;;;;;5105032;28;20291;-75
2023/05/12 00:27:10;;;;;;;0.10;0.10;;;;;;;;;;5110301;28;20261;-75
2023/05/12 00:29:36;;;;;;;0.10;0.10;;;;;;;;;;5104938;28;20238;-75
2023/05/12 00:32:03;;;;;;;0.10;0.10;;;;;;;;;;5109313;28;20531;-75
2023/05/12 00:34:30;;;;;;;0.10;0.10;;;;;;;;;;5105389;28;20207;-75
2023/05/12 00:36:56;;;;;;;0.10;0.10;;;;;;;;;;5108322;28;20264;-75
2023/05/12 00:39:22;;;;;;;0.10;0.10;;;;;;;;;;5106181;28;20288;-75
2023/05/12 00:41:54;;;;;;;0.10;0.10;;;;;;;;;;5107286;28;20242;-75
2023/05/12 00:44:21;;;;;;;0.10;0.10;;;;;;;;;;5106633;28;20229;-75
2023/05/12 00:46:48;;;;;;;0.20;0.20;;;;;;;;;;5107271;28;20240;-75
2023/05/12 00:49:14;;;;;;;0.10;0.10;;;;;;;;;;5106688;28;20281;-75
2023/05/12 00:51:40;;;;;;;0.10;0.10;;;;;;;;;;5105980;28;20242;-75
2023/05/12 00:54:07;;;;;;;0.10;0.10;;;;;;;;;;5108013;28;20448;-75
2023/05/12 00:56:38;;;;;;;0.10;0.10;;;;;;;;;;5104936;28;20449;-75
2023/05/12 00:59:04;;;;;;;0.10;0.10;;;;;;;;;;5108288;28;20226;-75
2023/05/12 01:01:32;;;;;;;0.10;0.10;;;;;;;;;;5104692;28;20257;-75
2023/05/12 01:03:59;;;;;;;0.10;0.10;;;;;;;;;;5108895;28;20232;-75
2023/05/12 01:06:28;;;;;;;0.10;0.10;;;;;;;;;;5103762;28;20237;-75
2023/05/12 01:08:55;;;;;;;0.10;0.10;;;;;;;;;;5109368;28;20269;-75
2023/05/12 01:11:22;;;;;;;0.10;0.10;;;;;;;;;;5103130;28;20245;-75
2023/05/12 01:13:48;;;;;;;0.10;0.10;;;;;;;;;;5109697;28;20202;-75
2023/05/12 01:16:17;;;;;;;0.07;0.07;;;;;;;;;;5102384;28;20299;-76
2023/05/12 01:18:48;;;;;;;0.10;0.10;;;;;;;;;;5110693;28;20206;-76
2023/05/12 01:21:16;;;;;;;0.10;0.10;;;;;;;;;;5102732;28;20492;-75
2023/05/12 01:23:44;;;;;;;0.10;0.10;;;;;;;;;;5109892;28;20466;-75
2023/05/12 01:26:12;;;;;;;0.10;0.10;;;;;;;;;;5102000;28;20498;-76
2023/05/12 01:28:39;;;;;;;0.10;0.10;;;;;;;;;;5111541;28;20207;-75
2023/05/12 01:31:06;;;;;;;0.05;0.05;;;;;;;;;;5101131;28;20249;-75
2023/05/12 01:33:34;;;;;;;0.00;0.00;;;;;;;;;;5111812;28;20237;-75
2023/05/12 01:36:00;;;;;;;0.03;0.03;;;;;;;;;;5100297;28;20258;-75
2023/05/12 01:38:26;;;;;;;0.10;0.10;;;;;;;;;;5112626;28;20217;-75
2023/05/12 01:40:53;;;;;;;0.10;0.10;;;;;;;;;;5099094;28;20245;-76
2023/05/12 01:43:20;;;;;;;0.10;0.10;;;;;;;;;;5113554;28;20237;-75
2023/05/12 01:45:47;;;;;;;0.10;0.10;;;;;;;;;;5098452;28;20557;-75
2023/05/12 01:48:13;;;;;;;0.10;0.10;;;;;;;;;;5114476;28;20195;-75
2023/05/12 01:50:41;;;;;;;0.03;0.03;;;;;;;;;;5097781;28;20249;-75
2023/05/12 01:53:09;;;;;;;0.10;0.10;;;;;;;;;;5115263;28;20204;-75
2023/05/12 01:55:35;;;;;;;0.10;0.10;;;;;;;;;;5096979;28;20245;-75
2023/05/12 01:58:01;;;;;;;0.10;0.10;;;;;;;;;;5115957;28;20294;-75
2023/05/12 02:00:29;;;;;;;0.10;0.10;;;;;;;;;;5096016;28;20558;-75
2023/05/12 02:02:56;;;;;;;0.10;0.10;;;;;;;;;;5116848;28;20246;-75
2023/05/12 02:05:22;;;;;;;0.10;0.10;;;;;;;;;;5094805;28;20258;-75
2023/05/12 02:07:48;;;;;;;0.00;0.00;;;;;;;;;;5117239;28;20200;-75
2023/05/12 02:10:15;;;;;;;0.00;0.00;;;;;;;;;;5094063;28;20203;-75
2023/05/12 02:12:41;;;;;;;0.10;0.10;;;;;;;;;;5118379;28;20219;-75
2023/05/12 02:15:08;;;;;;;0.10;0.10;;;;;;;;;;5100049;28;20244;-75
2023/05/12 02:17:35;;;;;;;0.10;0.10;;;;;;;;;;5119110;28;20245;-75
2023/05/12 02:20:02;;;;;;;0.10;0.10;;;;;;;;;;5103329;28;20269;-75
2023/05/12 02:22:29;;;;;;;0.10;0.10;;;;;;;;;;5108927;28;20240;-76
2023/05/12 02:24:55;;;;;;;0.10;0.10;;;;;;;;;;5103756;28;20515;-76
2023/05/12 02:27:22;;;;;;;0.00;0.00;;;;;;;;;;5108897;28;20420;-75
2023/05/12 02:29:48;;;;;;;0.10;0.10;;;;;;;;;;5103719;28;20237;-75
2023/05/12 02:32:14;;;;;;;0.10;0.10;;;;;;;;;;5108808;28;20629;-75
2023/05/12 02:34:42;;;;;;;0.00;0.00;;;;;;;;;;5103993;28;20222;-75
2023/05/12 02:37:08;;;;;;;0.10;0.10;;;;;;;;;;5112496;28;20313;-75
2023/05/12 02:39:35;;;;;;;0.00;0.00;;;;;;;;;;5107347;28;20373;-75
2023/05/12 02:42:01;;;;;;;0.00;0.00;;;;;;;;;;5111318;28;20436;-76
2023/05/12 02:44:27;;;;;;;0.10;0.10;;;;;;;;;;5107357;28;20468;-75
2023/05/12 02:46:54;;;;;;;0.03;0.03;;;;;;;;;;5110043;28;20308;-75
2023/05/12 02:49:20;;;;;;;0.10;0.10;;;;;;;;;;5108870;28;20347;-75
2023/05/12 02:51:48;;;;;;;0.10;0.10;;;;;;;;;;5109201;28;20497;-75
2023/05/12 02:54:14;;;;;;;0.10;0.10;;;;;;;;;;5109211;28;20517;-75
2023/05/12 02:56:41;;;;;;;0.10;0.10;;;;;;;;;;5108471;28;20238;-76
2023/05/12 02:59:07;;;;;;;0.10;0.10;;;;;;;;;;5110225;28;20255;-75
2023/05/12 03:01:33;;;;;;;0.10;0.10;;;;;;;;;;5107471;28;20305;-75
2023/05/12 03:04:00;;;;;;;0.10;0.10;;;;;;;;;;5111245;28;20204;-76
2023/05/12 03:06:26;;;;;;;0.05;0.05;;;;;;;;;;5106594;28;20600;-75
2023/05/12 03:08:54;;;;;;;0.10;0.10;;;;;;;;;;5111868;28;20209;-75
2023/05/12 03:11:21;;;;;;;0.10;0.10;;;;;;;;;;5105552;28;20288;-75
2023/05/12 03:13:47;;;;;;;0.08;0.08;;;;;;;;;;5112902;28;20275;-75
2023/05/12 03:16:15;;;;;;;0.10;0.10;;;;;;;;;;5104972;28;20261;-76
2023/05/12 03:18:42;;;;;;;0.00;0.00;;;;;;;;;;5113168;28;20203;-76
2023/05/12 03:21:08;;;;;;;0.10;0.10;;;;;;;;;;5103862;28;20488;-75
2023/05/12 03:23:35;;;;;;;0.10;0.10;;;;;;;;;;5113948;28;20215;-75
2023/05/12 03:26:03;;;;;;;0.05;0.05;;;;;;;;;;5102464;28;20238;-75
2023/05/12 03:28:31;;;;;;;0.10;0.10;;;;;;;;;;5114861;28;20214;-75
2023/05/12 03:30:57;;;;;;;0.10;0.10;;;;;;;;;;5102148;28;20287;-76
2023/05/12 03:33:23;;;;;;;0.10;0.10;;;;;;;;;;5115452;28;20437;-75
2023/05/12 03:35:50;;;;;;;0.10;0.10;;;;;;;;;;5101194;28;20233;-75
2023/05/12 03:38:16;;;;;;;0.00;0.00;;;;;;;;;;5116082;28;20210;-75
2023/05/12 03:40:43;;;;;;;0.10;0.10;;;;;;;;;;5099919;28;20243;-75
2023/05/12 03:43:10;;;;;;;0.00;0.00;;;;;;;;;;5116887;28;20234;-75
2023/05/12 03:45:37;;;;;;;0.10;0.10;;;;;;;;;;5099000;28;20268;-76
2023/05/12 03:48:03;;;;;;;0.10;0.10;;;;;;;;;;5116941;28;20251;-75
2023/05/12 03:50:30;;;;;;;0.10;0.10;;;;;;;;;;5098299;28;20425;-75
2023/05/12 03:52:56;;;;;;;0.10;0.10;;;;;;;;;;5118594;28;20430;-75
2023/05/12 03:55:22;;;;;;;0.00;0.00;;;;;;;;;;5096829;28;20536;-75
2023/05/12 03:57:49;;;;;;;0.10;0.10;;;;;;;;;;5118657;28;20235;-76
2023/05/12 04:00:17;;;;;;;0.10;0.10;;;;;;;;;;5095590;28;20230;-75
2023/05/12 04:02:45;;;;;;;0.10;0.10;;;;;;;;;;5119474;28;20257;-75
2023/05/12 04:05:11;;;;;;;0.00;0.00;;;;;;;;;;5095235;28;20540;-75
2023/05/12 04:07:38;;;;;;;0.10;0.10;;;;;;;;;;5120548;28;20432;-75
2023/05/12 04:10:05;;;;;;;0.00;0.00;;;;;;;;;;5105282;28;20273;-75
2023/05/12 04:12:31;;;;;;;0.10;0.10;;;;;;;;;;5110451;28;20252;-75
2023/05/12 04:14:58;;;;;;;0.10;0.10;;;;;;;;;;5105248;28;20199;-75
2023/05/12 04:17:25;;;;;;;0.07;0.07;;;;;;;;;;5110428;28;20255;-75
2023/05/12 04:19:52;;;;;;;0.00;0.00;;;;;;;;;;5105299;28;20276;-75
2023/05/12 04:22:18;;;;;;;0.10;0.10;;;;;;;;;;5110225;28;20235;-75
2023/05/12 04:24:45;;;;;;;0.10;0.10;;;;;;;;;;5104523;28;20290;-75
2023/05/12 04:27:11;;;;;;;0.10;0.10;;;;;;;;;;5110190;28;20303;-75
2023/05/12 04:29:38;;;;;;;0.10;0.10;;;;;;;;;;5105081;28;20208;-75
2023/05/12 04:32:04;;;;;;;0.10;0.10;;;;;;;;;;5109605;27;20422;-75
2023/05/12 04:34:32;;;;;;;0.10;0.10;;;;;;;;;;5105165;28;20203;-75
2023/05/12 04:36:58;;;;;;;0.00;0.00;;;;;;;;;;5108746;28;20486;-75
2023/05/12 04:39:25;;;;;;;0.10;0.10;;;;;;;;;;5105349;28;20213;-75
2023/05/12 04:41:51;;;;;;;0.10;0.10;;;;;;;;;;5107628;28;20299;-75
2023/05/12 04:44:18;;;;;;;0.10;0.10;;;;;;;;;;5106933;28;20218;-75
2023/05/12 04:46:44;;;;;;;0.10;0.10;;;;;;;;;;5106547;28;20313;-75
2023/05/12 04:49:11;;;;;;;0.10;0.10;;;;;;;;;;5107741;28;20202;-75
2023/05/12 04:51:41;;;;;;;0.87;0.87;;;;;;;;;;5105698;28;20287;-75
2023/05/12 04:54:08;;;;;;;0.10;0.10;;;;;;;;;;5108545;28;20229;-75
2023/05/12 04:56:34;;;;;;;0.10;0.10;;;;;;;;;;5105653;28;20241;-75
2023/05/12 04:59:01;;;;;;;0.10;0.10;;;;;;;;;;5108813;28;20409;-75
2023/05/12 05:01:27;;;;;;;0.00;0.00;;;;;;;;;;5104477;28;20240;-75
2023/05/12 05:03:53;;;;;;;0.10;0.10;;;;;;;;;;5109453;28;20277;-74
2023/05/12 05:06:20;;;;;;;0.10;0.10;;;;;;;;;;5103031;28;20300;-74
2023/05/12 05:08:47;;;;;;;0.10;0.10;;;;;;;;;;5110271;28;20299;-75
2023/05/12 05:11:14;;;;;;;0.10;0.10;;;;;;;;;;5102184;28;20248;-74
2023/05/12 05:13:40;;;;;;;0.00;0.00;;;;;;;;;;5111061;28;20230;-76
2023/05/12 05:16:07;;;;;;;0.10;0.10;;;;;;;;;;5101223;28;20241;-74
2023/05/12 05:18:33;;;;;;;0.10;0.10;;;;;;;;;;5111853;28;20268;-74
2023/05/12 05:21:00;;;;;;;1.60;1.50;;;;;;;;;;5100177;28;20254;-75
2023/05/12 05:23:26;;;;;;;0.10;0.10;;;;;;;;;;5112919;28;20206;-75
2023/05/12 05:25:54;;;;;;;0.10;0.10;;;;;;;;;;5099316;28;20249;-75
2023/05/12 05:28:20;;;;;;;0.10;0.10;;;;;;;;;;5113331;28;20210;-75
2023/05/12 05:30:46;;;;;;;0.10;0.10;;;;;;;;;;5098279;28;20268;-75
2023/05/12 05:33:13;;;;;;;0.10;0.10;;;;;;;;;;5114292;28;20284;-75
2023/05/12 05:35:39;;;;;;;0.10;0.10;;;;;;;;;;5097544;28;20298;-74
2023/05/12 05:38:06;;;;;;;0.10;0.10;;;;;;;;;;5115364;28;20446;-75
2023/05/12 05:40:32;;;;;;;0.10;0.10;;;;;;;;;;5096159;28;20290;-74
2023/05/12 05:43:00;;;;;;;0.10;0.10;;;;;;;;;;5116510;28;20252;-74
2023/05/12 05:45:26;;;;;;;0.10;0.10;;;;;;;;;;5095479;28;20289;-75
2023/05/12 05:47:52;;;;;;;0.10;0.10;;;;;;;;;;5116873;28;20274;-75
2023/05/12 05:50:19;;;;;;;0.03;0.03;;;;;;;;;;5094750;28;20384;-74
2023/05/12 05:52:45;;;;;;;0.08;0.08;;;;;;;;;;5117966;28;20437;-75
2023/05/12 05:55:11;;;;;;;0.10;0.10;;;;;;;;;;5093746;28;20391;-74
2023/05/12 05:57:38;;;;;;;0.10;0.10;;;;;;;;;;5118809;28;20481;-74
2023/05/12 06:00:07;;;;;;;0.10;0.10;;;;;;;;;;5103725;28;20447;-75
2023/05/12 06:02:34;;;;;;;0.10;0.10;;;;;;;;;;5108866;28;20541;-75
2023/05/12 06:05:00;;;;;;;0.00;0.00;;;;;;;;;;5103570;28;20211;-74
2023/05/12 06:07:27;;;;;;;0.10;0.10;;;;;;;;;;5108768;28;20234;-74
2023/05/12 06:09:53;;;;;;;0.10;0.10;;;;;;;;;;5104317;28;20277;-75
2023/05/12 06:12:19;;;;;;;0.10;0.10;;;;;;;;;;5112619;28;20263;-74
2023/05/12 06:14:46;;;;;;;0.10;0.10;;;;;;;;;;5107579;28;20233;-75
2023/05/12 06:17:13;;;;;;;0.10;0.10;;;;;;;;;;5112681;28;20599;-74
2023/05/12 06:19:40;;;;;;;0.10;0.10;;;;;;;;;;5106921;28;20207;-75
2023/05/12 06:22:06;;;;;;;0.08;0.08;;;;;;;;;;5112198;28;20308;-75
2023/05/12 06:24:32;;;;;;;0.10;0.10;;;;;;;;;;5107660;28;20203;-74
2023/05/12 06:26:59;;;;;;;0.10;0.10;;;;;;;;;;5111054;28;20240;-74
2023/05/12 06:29:25;;;;;;;0.05;0.05;;;;;;;;;;5108524;28;20535;-75
2023/05/12 06:31:51;;;;;;;0.10;0.10;;;;;;;;;;5110106;28;20238;-74
2023/05/12 06:34:20;;;;;;;0.10;0.10;;;;;;;;;;5109327;28;20439;-75
2023/05/12 06:36:46;;;;;;;0.00;0.00;;;;;;;;;;5109146;28;20238;-75
2023/05/12 06:39:12;;;;;;;0.10;0.10;;;;;;;;;;5109757;28;20238;-74
2023/05/12 06:41:39;;;;;;;0.00;0.00;;;;;;;;;;5108090;28;20245;-74
2023/05/12 06:44:11;;;;;;;0.10;0.10;;;;;;;;;;5110745;28;20241;-74
2023/05/12 06:46:37;;;;;;;0.10;0.10;;;;;;;;;;5107830;28;20430;-75
2023/05/12 06:49:04;;;;;;;0.08;0.08;;;;;;;;;;5110862;28;20203;-74
2023/05/12 06:51:32;;;;;;;0.10;0.10;;;;;;;;;;5107019;28;20244;-75
2023/05/12 06:53:59;;;;;;;0.10;0.10;;;;;;;;;;5111455;28;20567;-74
2023/05/12 06:56:25;;;;;;;0.10;0.10;;;;;;;;;;5106032;28;20303;-74
2023/05/12 06:58:53;;;;;;;0.10;0.10;;;;;;;;;;5112168;28;20230;-74
2023/05/12 07:01:19;;;;;;;0.10;0.10;;;;;;;;;;5105262;28;20265;-75
2023/05/12 07:03:45;;;;;;;0.03;0.03;;;;;;;;;;5112941;28;20295;-74
2023/05/12 07:06:12;;;;;;;0.00;0.00;;;;;;;;;;5104229;28;20524;-74
2023/05/12 07:08:40;;;;;;;0.10;0.10;;;;;;;;;;5113840;28;20313;-74
2023/05/12 07:11:07;;;;;;;0.85;0.85;;;;;;;;;;5103490;28;20243;-74
2023/05/12 07:13:33;;;;;;;0.10;0.10;;;;;;;;;;5114401;28;20390;-74
2023/05/12 07:16:00;;;;;;;0.10;0.10;;;;;;;;;;5102326;28;20237;-74
2023/05/12 07:18:26;;;;;;;0.00;0.00;;;;;;;;;;5115013;28;20212;-74
2023/05/12 07:20:52;;;;;;;0.10;0.10;;;;;;;;;;5101387;28;20247;-74
2023/05/12 07:23:19;;;;;;;0.35;0.35;;;;;;;;;;5116000;28;20236;-75
2023/05/12 07:25:46;;;;;;;0.00;0.00;;;;;;;;;;5100358;28;20307;-75
2023/05/12 07:28:13;;;;;;;0.00;0.00;;;;;;;;;;5116720;28;20278;-74
2023/05/12 07:30:39;;;;;;;0.03;0.03;;;;;;;;;;5099723;28;20876;-74
2023/05/12 07:33:07;;;;;;;0.08;0.08;;;;;;;;;;5117380;28;20255;-75
2023/05/12 07:35:34;;;;;;;0.10;0.10;;;;;;;;;;5098561;28;20251;-74
2023/05/12 07:38:02;;;;;;;0.00;0.00;;;;;;;;;;5117984;28;20211;-75
2023/05/12 07:40:28;;;;;;;0.10;0.10;;;;;;;;;;5097822;28;20244;-75
2023/05/12 07:42:56;;;;;;;0.03;0.03;;;;;;;;;;5118672;28;20232;-74
2023/05/12 07:45:23;;;;;;;0.10;0.10;;;;;;;;;;5097086;28;20362;-74
2023/05/12 07:47:50;;;;;;;0.10;0.10;;;;;;;;;;5119030;28;20256;-74
2023/05/12 07:50:17;;;;;;;0.10;0.10;;;;;;;;;;5096073;28;20426;-75
2023/05/12 07:52:47;;;;;;;2.63;2.53;;;;;;;;;;5119779;28;20193;-74
2023/05/12 07:55:14;;;;;;;0.10;0.10;;;;;;;;;;5095539;27;20205;-75
2023/05/12 07:57:40;;;;;;;0.08;0.08;;;;;;;;;;5120118;28;20262;-75
2023/05/12 08:00:09;;;;;;;0.10;0.10;;;;;;;;;;5105313;28;20211;-75
2023/05/12 08:02:36;;;;;;;0.20;0.20;;;;;;;;;;5093305;28;20408;-75
2023/05/12 08:05:03;;;;;;;0.03;0.03;;;;;;;;;;5105280;28;20209;-75
2023/05/12 08:07:29;;;;;;;0.00;0.00;;;;;;;;;;5110439;28;20299;-75
2023/05/12 08:09:55;;;;;;;0.10;0.10;;;;;;;;;;5105406;28;20237;-74
2023/05/12 08:12:22;;;;;;;0.03;0.03;;;;;;;;;;5110441;28;20302;-75
2023/05/12 08:14:48;;;;;;;0.00;0.00;;;;;;;;;;5105278;28;20203;-75
2023/05/12 08:17:16;;;;;;;9.40;3.92;;;;;;;;;;5110448;28;20254;-74
2023/05/12 08:19:43;;;;;;;0.00;0.00;;;;;;;;;;5105603;28;20280;-74
2023/05/12 08:22:10;;;;;;;0.32;0.32;;;;;;;;;;5110171;28;20449;-75
2023/05/12 08:24:36;;;;;;;0.00;0.00;;;;;;;;;;5105063;28;20386;-75
2023/05/12 08:27:02;;;;;;;0.10;0.10;;;;;;;;;;5109343;28;20300;-74
2023/05/12 08:29:29;;;;;;;0.35;0.35;;;;;;;;;;5105552;28;20424;-75
2023/05/12 08:31:56;;;;;;;0.00;0.00;;;;;;;;;;5108404;28;20236;-74
2023/05/12 08:34:24;;;;;;;0.10;0.10;;;;;;;;;;5105770;28;20200;-75
2023/05/12 08:36:51;;;;;;;0.30;0.30;;;;;;;;;;5107554;28;20233;-76
2023/05/12 08:39:18;;;;;;;0.10;0.10;;;;;;;;;;5106744;28;20289;-75
2023/05/12 08:41:45;;;;;;;0.03;0.03;;;;;;;;;;5106591;28;20306;-75
2023/05/12 08:44:11;;;;;;;0.08;0.08;;;;;;;;;;5107695;28;20444;-74
2023/05/12 08:46:38;;;;;;;0.10;0.10;;;;;;;;;;5105735;28;20304;-73
2023/05/12 08:49:04;;;;;;;0.08;0.08;;;;;;;;;;5108454;28;20272;-75
2023/05/12 08:51:33;;;;;;;0.68;0.68;;;;;;;;;;5104742;28;20311;-75
2023/05/12 08:53:59;;;;;;;0.20;0.20;;;;;;;;;;5109302;28;20236;-75
2023/05/12 08:56:25;;;;;;;0.00;0.00;;;;;;;;;;5104072;28;20253;-75
2023/05/12 08:58:53;;;;;;;1.38;0.60;;;;;;;;;;5109832;28;20227;-76
2023/05/12 09:01:20;;;;;;;0.00;0.00;;;;;;;;;;5102971;28;20247;-74
2023/05/12 09:03:46;;;;;;;0.03;0.03;;;;;;;;;;5110202;28;20269;-75
2023/05/12 09:06:13;;;;;;;0.00;0.00;;;;;;;;;;5102208;28;20308;-75
2023/05/12 09:08:41;;;;;;;0.10;0.10;;;;;;;;;;5111192;28;20211;-75
2023/05/12 09:11:10;;;;;;;0.00;0.00;;;;;;;;;;5101466;28;20420;-75
2023/05/12 09:13:39;;;;;;;0.10;0.10;;;;;;;;;;5111544;28;20234;-75
2023/05/12 09:16:07;;;;;;;0.10;0.10;;;;;;;;;;5100982;28;20573;-75
2023/05/12 09:18:44;;;;;;;0.10;0.10;;;;;;;;;;5111772;28;20202;-75
2023/05/12 09:21:11;;;;;;;0.10;0.10;;;;;;;;;;5101708;28;20244;-75
2023/05/12 09:23:37;;;;;;;0.10;0.10;;;;;;;;;;5111383;28;20205;-75
2023/05/12 09:26:05;;;;;;;0.10;0.10;;;;;;;;;;5100612;28;20454;-75
2023/05/12 09:28:36;;;;;;;0.10;0.10;;;;;;;;;;5112117;28;20206;-75
2023/05/12 09:31:03;;;;;;;0.00;0.00;;;;;;;;;;5100284;28;20238;-75
2023/05/12 09:33:34;;;;;;;0.00;0.00;;;;;;;;;;5112180;28;20209;-75
2023/05/12 09:36:01;;;;;;;0.00;0.00;;;;;;;;;;5100474;28;20260;-75
2023/05/12 09:38:27;;;;;;;0.10;0.10;;;;;;;;;;5112441;28;20277;-75
2023/05/12 09:40:54;;;;;;;0.00;0.00;;;;;;;;;;5099191;28;20295;-75
2023/05/12 09:43:22;;;;;;;0.10;0.10;;;;;;;;;;5113379;28;20208;-75
2023/05/12 09:45:49;;;;;;;0.00;0.00;;;;;;;;;;5100833;28;20435;-75
2023/05/12 09:48:16;;;;;;;0.00;0.00;;;;;;;;;;5118234;28;20256;-74
2023/05/12 09:50:44;;;;;;;0.52;0.52;;;;;;;;;;5101929;28;20257;-75
2023/05/12 09:53:10;;;;;;;0.08;0.08;;;;;;;;;;5118862;28;20233;-75
2023/05/12 09:55:37;;;;;;;0.00;0.00;;;;;;;;;;5100811;28;20244;-75
2023/05/12 09:58:07;;;;;;;0.00;0.00;;;;;;;;;;5119686;28;20427;-75
2023/05/12 10:00:37;;;;;;;0.00;0.00;;;;;;;;;;5100706;28;20316;-74
2023/05/12 10:03:06;;;;;;;0.00;0.00;;;;;;;;;;5119348;28;20248;-74
2023/05/12 10:05:33;;;;;;;0.00;0.00;;;;;;;;;;5100222;28;20253;-74
2023/05/12 10:08:00;;;;;;;0.00;0.00;;;;;;;;;;5120013;28;20473;-75
2023/05/12 10:10:27;;;;;;;0.00;0.00;;;;;;;;;;5099318;28;20202;-75
2023/05/12 10:12:54;;;;;;;0.00;0.00;;;;;;;;;;5120456;28;20209;-75
2023/05/12 10:15:22;;;;;;;0.00;0.00;;;;;;;;;;5098797;28;20277;-75
2023/05/12 10:17:50;;;;;;;0.00;0.00;;;;;;;;;;5121082;28;20494;-75
2023/05/12 10:20:17;;;;;;;0.00;0.00;;;;;;;;;;5097892;28;20282;-75
2023/05/12 10:22:44;;;;;;;0.00;0.00;;;;;;;;;;5121443;28;20191;-75
2023/05/12 10:25:11;;;;;;;0.00;0.00;;;;;;;;;;5097206;28;20203;-75
2023/05/12 10:27:37;;;;;;;0.65;0.65;;;;;;;;;;5122176;28;20254;-75
2023/05/12 10:30:04;;;;;;;0.20;0.20;;;;;;;;;;5107150;28;20241;-75
2023/05/12 10:32:30;;;;;;;0.10;0.10;;;;;;;;;;5112408;28;20302;-74
2023/05/12 10:35:08;;;;;;;0.10;0.10;;;;;;;;;;5106720;28;20234;-75
2023/05/12 10:37:35;;;;;;;0.00;0.00;;;;;;;;;;5094926;28;20207;-75
2023/05/12 10:40:03;;;;;;;0.08;0.08;;;;;;;;;;5105804;28;20498;-75
2023/05/12 10:42:36;;;;;;;0.00;0.00;;;;;;;;;;5110940;28;20301;-75
2023/05/12 10:45:04;;;;;;;0.00;0.00;;;;;;;;;;5105568;28;20195;-74
2023/05/12 10:47:36;;;;;;;0.05;0.05;;;;;;;;;;5110788;28;20230;-75
2023/05/12 10:50:02;;;;;;;0.08;0.08;;;;;;;;;;5105139;28;20222;-75
2023/05/12 10:52:30;;;;;;;0.00;0.00;;;;;;;;;;5110789;28;20238;-73
2023/05/12 10:55:00;;;;;;;0.30;0.30;;;;;;;;;;5105756;28;20270;-75
2023/05/12 10:57:26;;;;;;;0.00;0.00;;;;;;;;;;5110202;28;20253;-75
2023/05/12 10:59:56;;;;;;;0.10;0.10;;;;;;;;;;5105645;28;20234;-75
2023/05/12 11:02:24;;;;;;;0.00;0.00;;;;;;;;;;5110683;28;20466;-75
2023/05/12 11:04:51;;;;;;;0.00;0.00;;;;;;;;;;5105450;28;20390;-75
2023/05/12 11:07:20;;;;;;;0.00;0.00;;;;;;;;;;5110567;28;20240;-74
2023/05/12 11:09:48;;;;;;;0.00;0.00;;;;;;;;;;5105451;28;20234;-74
2023/05/12 11:12:14;;;;;;;0.00;0.00;;;;;;;;;;5110591;28;20418;-74
2023/05/12 11:14:41;;;;;;;0.08;0.08;;;;;;;;;;5105386;28;20273;-74
2023/05/12 11:17:08;;;;;;;0.00;0.00;;;;;;;;;;5110349;28;20486;-75
2023/05/12 11:19:34;;;;;;;0.00;0.00;;;;;;;;;;5105329;28;20202;-75
2023/05/12 11:22:04;;;;;;;0.05;0.05;;;;;;;;;;5109402;28;20323;-75
2023/05/12 11:24:31;;;;;;;0.00;0.00;;;;;;;;;;5105509;28;20230;-75
2023/05/12 11:26:58;;;;;;;0.00;0.00;;;;;;;;;;5108611;28;20236;-75
2023/05/12 11:29:25;;;;;;;0.03;0.03;;;;;;;;;;5106350;28;20211;-75
2023/05/12 11:31:51;;;;;;;0.10;0.10;;;;;;;;;;5107969;28;20238;-75
2023/05/12 11:34:21;;;;;;;0.10;0.10;;;;;;;;;;5107000;28;20241;-74
2023/05/12 11:36:47;;;;;;;0.00;0.00;;;;;;;;;;5107204;28;20238;-75
2023/05/12 11:39:16;;;;;;;0.00;0.00;;;;;;;;;;5069728;28;1088907;-75
2023/05/12 11:41:42;;;;;;;0.10;0.10;;;;;;;;;;5107067;28;20249;-75
2023/05/12 11:44:17;;;;;;;0.20;0.20;;;;;;;;;;5109617;28;20202;-75
2023/05/12 11:46:53;;;;;;;1.38;1.38;;;;;;;;;;5107410;28;20256;-74
2023/05/12 11:49:19;;;;;;;0.03;0.03;;;;;;;;;;5107686;28;20289;-75
2023/05/12 11:51:46;;;;;;;0.30;0.30;;;;;;;;;;5107991;28;20314;-75
2023/05/12 11:54:12;;;;;;;0.00;0.00;;;;;;;;;;5108315;28;20241;-75
2023/05/12 11:56:39;;;;;;;0.10;0.10;;;;;;;;;;5106928;28;20584;-74
2023/05/12 11:59:05;;;;;;;0.20;0.20;;;;;;;;;;5109207;28;20223;-75
2023/05/12 12:01:43;;;;;;;0.00;0.00;;;;;;;;;;5105336;28;20294;-75
2023/05/12 12:04:10;;;;;;;0.10;0.10;;;;;;;;;;5108675;28;20278;-75
2023/05/12 12:06:43;;;;;;;0.00;0.00;;;;;;;;;;5106397;28;20480;-75
2023/05/12 12:09:09;;;;;;;0.20;0.20;;;;;;;;;;5107753;28;20368;-75
2023/05/12 12:11:36;;;;;;;1.20;1.17;;;;;;;;;;5106140;28;20407;-74
2023/05/12 12:14:02;;;;;;;0.10;0.10;;;;;;;;;;5109382;28;20209;-74
2023/05/12 12:16:30;;;;;;;0.00;0.00;;;;;;;;;;5105129;28;20242;-75
2023/05/12 12:18:58;;;;;;;0.00;0.00;;;;;;;;;;5110026;28;20206;-75
2023/05/12 12:21:25;;;;;;;0.00;0.00;;;;;;;;;;5104754;28;20488;-72
2023/05/12 12:23:51;;;;;;;0.00;0.00;;;;;;;;;;5110503;28;20207;-77
2023/05/12 12:26:19;;;;;;;0.00;0.00;;;;;;;;;;5103646;28;20309;-76
2023/05/12 12:28:46;;;;;;;0.00;0.00;;;;;;;;;;5111216;28;20293;-76
2023/05/12 12:31:12;;;;;;;0.00;0.00;;;;;;;;;;5102889;28;20639;-76
2023/05/12 12:33:39;;;;;;;0.00;0.00;;;;;;;;;;5111917;28;20206;-73
2023/05/12 12:36:07;;;;;;;0.00;0.00;;;;;;;;;;5101977;28;20253;-75
2023/05/12 12:38:33;;;;;;;0.08;0.08;;;;;;;;;;5112813;28;20234;-75
2023/05/12 12:41:00;;;;;;;0.00;0.00;;;;;;;;;;5100981;28;20301;-76
2023/05/12 12:43:26;;;;;;;0.00;0.00;;;;;;;;;;5113756;28;20203;-75
2023/05/12 12:45:53;;;;;;;0.00;0.00;;;;;;;;;;5099813;28;20238;-75
2023/05/12 12:48:19;;;;;;;0.00;0.00;;;;;;;;;;5114328;28;20276;-76
2023/05/12 12:50:46;;;;;;;0.10;0.10;;;;;;;;;;5099104;28;20503;-74
2023/05/12 12:53:14;;;;;;;0.00;0.00;;;;;;;;;;5115434;28;20203;-75
2023/05/12 12:55:40;;;;;;;0.00;0.00;;;;;;;;;;5098354;28;20297;-75
2023/05/12 12:58:06;;;;;;;0.00;0.00;;;;;;;;;;5115876;28;20439;-78
2023/05/12 13:00:33;;;;;;;0.10;0.10;;;;;;;;;;5097128;28;20268;-73
2023/05/12 13:02:59;;;;;;;0.20;0.20;;;;;;;;;;5116480;28;20274;-78
2023/05/12 13:05:26;;;;;;;0.00;0.00;;;;;;;;;;5096420;28;20273;-76
2023/05/12 13:07:52;;;;;;;0.00;0.00;;;;;;;;;;5117237;28;20310;-74
2023/05/12 13:10:20;;;;;;;0.00;0.00;;;;;;;;;;5094963;28;20231;-75
2023/05/12 13:12:46;;;;;;;0.10;0.10;;;;;;;;;;5118463;28;20258;-75
2023/05/12 13:15:12;;;;;;;0.10;0.10;;;;;;;;;;5094084;28;20234;-73
2023/05/12 13:17:39;;;;;;;0.00;0.00;;;;;;;;;;5118937;28;20186;-75
2023/05/12 13:20:07;;;;;;;0.00;0.00;;;;;;;;;;5103856;28;20237;-76
2023/05/12 13:22:34;;;;;;;0.00;0.00;;;;;;;;;;5092529;28;20211;-77
2023/05/12 13:25:00;;;;;;;0.10;0.10;;;;;;;;;;5104281;28;20450;-78
2023/05/12 13:27:28;;;;;;;0.00;0.00;;;;;;;;;;5109288;28;20491;-80
2023/05/12 13:29:54;;;;;;;0.00;0.00;;;;;;;;;;5104283;28;20215;-80
2023/05/12 13:32:21;;;;;;;0.00;0.00;;;;;;;;;;5109368;28;20488;-80
2023/05/12 13:34:47;;;;;;;0.15;0.15;;;;;;;;;;5104347;28;20202;-78
2023/05/12 13:50:43;;;;;;;0.00;0.00;;;;;;;;;;5086253;27;20668;-77
2023/05/12 13:53:11;;;;;;;0.10;0.10;;;;;;;;;;5072341;28;20395;-77
2023/05/12 13:55:38;;;;;;;0.00;0.00;;;;;;;;;;5054156;28;20422;-77
2023/05/12 13:58:05;;;;;;;0.10;0.10;;;;;;;;;;5072178;28;20224;-76
2023/05/12 14:00:31;;;;;;;0.10;0.10;;;;;;;;;;5053421;28;20287;-76
2023/05/12 14:02:58;;;;;;;0.08;0.08;;;;;;;;;;5073151;28;20192;-76
2023/05/12 14:05:24;;;;;;;0.00;0.00;;;;;;;;;;5053080;28;20223;-76
2023/05/12 14:07:52;;;;;;;0.00;0.00;;;;;;;;;;5074332;28;20202;-76
2023/05/12 14:10:18;;;;;;;0.00;0.00;;;;;;;;;;5052037;28;20390;-76
2023/05/12 14:12:45;;;;;;;0.63;0.63;;;;;;;;;;5074956;28;20227;-75
2023/05/12 14:15:12;;;;;;;0.10;0.10;;;;;;;;;;5050757;28;20206;-76
2023/05/12 14:17:38;;;;;;;0.20;0.20;;;;;;;;;;5075511;28;20507;-76
2023/05/12 14:20:06;;;;;;;0.00;0.00;;;;;;;;;;5060863;28;20216;-76
2023/05/12 14:22:33;;;;;;;0.00;0.00;;;;;;;;;;5049135;28;20235;-76
2023/05/12 14:25:35;;;;;;;0.00;0.00;;;;;;;;;;5061924;28;20207;-77
2023/05/12 14:28:03;;;;;;;0.00;0.00;;;;;;;;;;5044813;28;20284;-84
2023/05/12 14:30:29;;;;;;;0.10;0.10;;;;;;;;;;5054718;28;20313;-81
2023/05/12 14:32:56;;;;;;;0.00;0.00;;;;;;;;;;5076925;28;20237;-80
2023/05/12 14:35:26;;;;;;;0.00;0.00;;;;;;;;;;5057042;28;20239;-77
2023/05/12 14:37:52;;;;;;;0.00;0.00;;;;;;;;;;5075488;28;20212;-78
2023/05/12 14:40:18;;;;;;;0.00;0.00;;;;;;;;;;5054513;28;20273;-78
2023/05/12 14:42:46;;;;;;;0.40;0.40;;;;;;;;;;5077501;28;20195;-79
2023/05/12 14:45:14;;;;;;;0.00;0.00;;;;;;;;;;5054233;28;20206;-77
2023/05/12 14:47:40;;;;;;;0.05;0.05;;;;;;;;;;5077987;28;20207;-79
2023/05/12 14:50:07;;;;;;;0.00;0.00;;;;;;;;;;5067252;28;20234;-80
2023/05/12 14:52:37;;;;;;;0.00;0.00;;;;;;;;;;5051987;28;20218;-79
2023/05/12 14:55:03;;;;;;;0.20;0.20;;;;;;;;;;5060736;28;20257;-78